sensor_id;sensor_type;location;lat;lon;timestamp;temperature;humidity
15656;DHT22;7928;43.614;1.456;2023-07-13T00:01:50;23.10;99.90
15656;DHT22;7928;43.614;1.456;2023-07-13T00:04:18;23.10;99.90
15656;DHT22;7928;43.614;1.456;2023-07-13T00:06:46;23.00;99.90
15656;DHT22;7928;43.614;1.456;2023-07-13T00:09:14;23.00;99.90
15656;DHT22;7928;43.614;1.456;2023-07-13T00:11:42;23.00;99.90
15656;DHT22;7928;43.614;1.456;2023-07-13T00:14:09;22.90;99.90
15656;DHT22;7928;43.614;1.456;2023-07-13T00:16:39;22.80;99.90
15656;DHT22;7928;43.614;1.456;2023-07-13T00:19:09;22.80;99.90
15656;DHT22;7928;43.614;1.456;2023-07-13T00:21:37;22.70;99.90
15656;DHT22;7928;43.614;1.456;2023-07-13T00:24:05;22.70;99.90
15656;DHT22;7928;43.614;1.456;2023-07-13T00:26:33;22.70;99.90
15656;DHT22;7928;43.614;1.456;2023-07-13T00:29:00;22.60;99.90
15656;DHT22;7928;43.614;1.456;2023-07-13T00:31:27;22.60;99.90
15656;DHT22;7928;43.614;1.456;2023-07-13T00:33:55;22.60;99.90
15656;DHT22;7928;43.614;1.456;2023-07-13T00:36:22;22.60;99.90
15656;DHT22;7928;43.614;1.456;2023-07-13T00:38:49;22.60;99.90
15656;DHT22;7928;43.614;1.456;2023-07-13T00:41:16;22.50;99.90
15656;DHT22;7928;43.614;1.456;2023-07-13T00:43:43;22.50;99.90
15656;DHT22;7928;43.614;1.456;2023-07-13T00:46:16;22.60;99.90
15656;DHT22;7928;43.614;1.456;2023-07-13T00:48:45;22.60;99.90
15656;DHT22;7928;43.614;1.456;2023-07-13T00:51:16;22.70;99.90
15656;DHT22;7928;43.614;1.456;2023-07-13T00:53:44;22.70;99.90
15656;DHT22;7928;43.614;1.456;2023-07-13T00:56:11;22.80;99.90
15656;DHT22;7928;43.614;1.456;2023-07-13T00:58:39;22.80;99.90
15656;DHT22;7928;43.614;1.456;2023-07-13T01:01:06;22.70;99.90
15656;DHT22;7928;43.614;1.456;2023-07-13T01:03:34;22.70;99.90
15656;DHT22;7928;43.614;1.456;2023-07-13T01:06:03;22.70;99.90
15656;DHT22;7928;43.614;1.456;2023-07-13T01:08:32;22.70;99.90
15656;DHT22;7928;43.614;1.456;2023-07-13T01:10:59;22.70;99.90
15656;DHT22;7928;43.614;1.456;2023-07-13T01:13:26;22.60;99.90
15656;DHT22;7928;43.614;1.456;2023-07-13T01:15:55;22.60;99.90
15656;DHT22;7928;43.614;1.456;2023-07-13T01:18:26;22.60;99.90
15656;DHT22;7928;43.614;1.456;2023-07-13T01:20:56;22.60;99.90
15656;DHT22;7928;43.614;1.456;2023-07-13T01:23:25;22.60;99.90
15656;DHT22;7928;43.614;1.456;2023-07-13T01:25:53;22.60;99.90
15656;DHT22;7928;43.614;1.456;2023-07-13T01:28:21;22.60;99.90
15656;DHT22;7928;43.614;1.456;2023-07-13T01:30:49;22.60;99.90
15656;DHT22;7928;43.614;1.456;2023-07-13T01:33:17;22.50;99.90
15656;DHT22;7928;43.614;1.456;2023-07-13T01:35:45;22.60;99.90
15656;DHT22;7928;43.614;1.456;2023-07-13T01:38:15;22.60;99.90
15656;DHT22;7928;43.614;1.456;2023-07-13T01:40:43;22.60;99.90
15656;DHT22;7928;43.614;1.456;2023-07-13T01:43:10;22.50;99.90
15656;DHT22;7928;43.614;1.456;2023-07-13T01:45:37;22.50;99.90
15656;DHT22;7928;43.614;1.456;2023-07-13T01:48:04;22.50;99.90
15656;DHT22;7928;43.614;1.456;2023-07-13T01:50:32;22.50;99.90
15656;DHT22;7928;43.614;1.456;2023-07-13T01:52:59;22.40;99.90
15656;DHT22;7928;43.614;1.456;2023-07-13T01:55:29;22.50;99.90
15656;DHT22;7928;43.614;1.456;2023-07-13T01:57:56;22.40;99.90
15656;DHT22;7928;43.614;1.456;2023-07-13T02:00:23;22.40;99.90
15656;DHT22;7928;43.614;1.456;2023-07-13T02:02:51;22.20;99.90
15656;DHT22;7928;43.614;1.456;2023-07-13T02:05:18;22.20;99.90
15656;DHT22;7928;43.614;1.456;2023-07-13T02:07:46;22.10;99.90
15656;DHT22;7928;43.614;1.456;2023-07-13T02:10:13;22.10;99.90
15656;DHT22;7928;43.614;1.456;2023-07-13T02:12:41;22.20;99.90
15656;DHT22;7928;43.614;1.456;2023-07-13T02:15:09;22.10;99.90
15656;DHT22;7928;43.614;1.456;2023-07-13T02:17:37;22.10;99.90
15656;DHT22;7928;43.614;1.456;2023-07-13T02:20:05;22.00;99.90
15656;DHT22;7928;43.614;1.456;2023-07-13T02:22:33;21.90;99.90
15656;DHT22;7928;43.614;1.456;2023-07-13T02:25:00;22.00;99.90
15656;DHT22;7928;43.614;1.456;2023-07-13T02:27:27;21.90;99.90
15656;DHT22;7928;43.614;1.456;2023-07-13T02:29:55;21.80;99.90
15656;DHT22;7928;43.614;1.456;2023-07-13T02:32:22;21.90;99.90
15656;DHT22;7928;43.614;1.456;2023-07-13T02:34:50;21.90;99.90
15656;DHT22;7928;43.614;1.456;2023-07-13T02:37:18;21.90;99.90
15656;DHT22;7928;43.614;1.456;2023-07-13T02:39:45;21.90;99.90
15656;DHT22;7928;43.614;1.456;2023-07-13T02:42:13;21.90;99.90
15656;DHT22;7928;43.614;1.456;2023-07-13T02:44:40;21.90;99.90
15656;DHT22;7928;43.614;1.456;2023-07-13T02:47:08;21.90;99.90
15656;DHT22;7928;43.614;1.456;2023-07-13T02:49:35;21.70;99.90
15656;DHT22;7928;43.614;1.456;2023-07-13T02:52:03;21.60;99.90
15656;DHT22;7928;43.614;1.456;2023-07-13T02:54:30;21.70;99.90
15656;DHT22;7928;43.614;1.456;2023-07-13T02:56:57;21.70;99.90
15656;DHT22;7928;43.614;1.456;2023-07-13T02:59:24;21.70;99.90
15656;DHT22;7928;43.614;1.456;2023-07-13T03:01:51;21.40;99.90
15656;DHT22;7928;43.614;1.456;2023-07-13T03:04:19;21.70;99.90
15656;DHT22;7928;43.614;1.456;2023-07-13T03:06:46;21.70;99.90
15656;DHT22;7928;43.614;1.456;2023-07-13T03:09:13;21.70;99.90
15656;DHT22;7928;43.614;1.456;2023-07-13T03:11:40;21.60;99.90
15656;DHT22;7928;43.614;1.456;2023-07-13T03:14:08;21.50;99.90
15656;DHT22;7928;43.614;1.456;2023-07-13T03:16:35;21.50;99.90
15656;DHT22;7928;43.614;1.456;2023-07-13T03:19:03;21.40;99.90
15656;DHT22;7928;43.614;1.456;2023-07-13T03:21:31;21.30;99.90
15656;DHT22;7928;43.614;1.456;2023-07-13T03:23:58;21.20;99.90
15656;DHT22;7928;43.614;1.456;2023-07-13T03:26:25;21.20;99.90
15656;DHT22;7928;43.614;1.456;2023-07-13T03:28:52;21.20;99.90
15656;DHT22;7928;43.614;1.456;2023-07-13T03:31:23;21.20;99.90
15656;DHT22;7928;43.614;1.456;2023-07-13T03:33:50;21.20;99.90
15656;DHT22;7928;43.614;1.456;2023-07-13T03:36:21;21.20;99.90
15656;DHT22;7928;43.614;1.456;2023-07-13T03:38:51;21.10;99.90
15656;DHT22;7928;43.614;1.456;2023-07-13T03:41:19;21.10;99.90
15656;DHT22;7928;43.614;1.456;2023-07-13T03:43:47;21.10;99.90
15656;DHT22;7928;43.614;1.456;2023-07-13T03:46:15;21.20;99.90
15656;DHT22;7928;43.614;1.456;2023-07-13T03:48:43;21.20;99.90
15656;DHT22;7928;43.614;1.456;2023-07-13T03:51:10;21.20;99.90
15656;DHT22;7928;43.614;1.456;2023-07-13T03:53:39;21.20;99.90
15656;DHT22;7928;43.614;1.456;2023-07-13T03:56:08;21.20;99.90
15656;DHT22;7928;43.614;1.456;2023-07-13T03:58:37;21.20;99.90
15656;DHT22;7928;43.614;1.456;2023-07-13T04:01:06;21.20;99.90
15656;DHT22;7928;43.614;1.456;2023-07-13T04:03:34;21.00;99.90
15656;DHT22;7928;43.614;1.456;2023-07-13T04:06:02;20.90;99.90
15656;DHT22;7928;43.614;1.456;2023-07-13T04:08:31;20.90;99.90
15656;DHT22;7928;43.614;1.456;2023-07-13T04:10:59;20.80;99.90
15656;DHT22;7928;43.614;1.456;2023-07-13T04:13:27;20.80;99.90
15656;DHT22;7928;43.614;1.456;2023-07-13T04:15:54;20.90;99.90
15656;DHT22;7928;43.614;1.456;2023-07-13T04:18:22;20.90;99.90
15656;DHT22;7928;43.614;1.456;2023-07-13T04:20:49;20.90;99.90
15656;DHT22;7928;43.614;1.456;2023-07-13T04:23:17;20.90;99.90
15656;DHT22;7928;43.614;1.456;2023-07-13T04:25:44;20.90;99.90
15656;DHT22;7928;43.614;1.456;2023-07-13T04:28:12;20.90;99.90
15656;DHT22;7928;43.614;1.456;2023-07-13T04:30:40;20.80;99.90
15656;DHT22;7928;43.614;1.456;2023-07-13T04:33:07;20.80;99.90
15656;DHT22;7928;43.614;1.456;2023-07-13T04:35:35;20.80;99.90
15656;DHT22;7928;43.614;1.456;2023-07-13T04:38:03;20.80;99.90
15656;DHT22;7928;43.614;1.456;2023-07-13T04:40:30;20.80;99.90
15656;DHT22;7928;43.614;1.456;2023-07-13T04:42:57;20.80;99.90
15656;DHT22;7928;43.614;1.456;2023-07-13T04:45:24;20.80;99.90
15656;DHT22;7928;43.614;1.456;2023-07-13T04:47:53;20.80;99.90
15656;DHT22;7928;43.614;1.456;2023-07-13T04:50:20;20.80;99.90
15656;DHT22;7928;43.614;1.456;2023-07-13T04:52:49;20.80;99.90
15656;DHT22;7928;43.614;1.456;2023-07-13T04:55:16;20.70;99.90
15656;DHT22;7928;43.614;1.456;2023-07-13T04:57:43;20.70;99.90
15656;DHT22;7928;43.614;1.456;2023-07-13T05:00:11;20.70;99.90
15656;DHT22;7928;43.614;1.456;2023-07-13T05:02:43;20.60;99.90
15656;DHT22;7928;43.614;1.456;2023-07-13T05:05:12;20.80;99.90
15656;DHT22;7928;43.614;1.456;2023-07-13T05:07:39;20.80;99.90
15656;DHT22;7928;43.614;1.456;2023-07-13T05:10:07;20.90;99.90
15656;DHT22;7928;43.614;1.456;2023-07-13T05:12:34;20.80;99.90
15656;DHT22;7928;43.614;1.456;2023-07-13T05:15:01;21.00;99.90
15656;DHT22;7928;43.614;1.456;2023-07-13T05:17:28;21.00;99.90
15656;DHT22;7928;43.614;1.456;2023-07-13T05:19:55;21.00;99.90
15656;DHT22;7928;43.614;1.456;2023-07-13T05:22:23;21.20;99.90
15656;DHT22;7928;43.614;1.456;2023-07-13T05:24:50;21.00;99.90
15656;DHT22;7928;43.614;1.456;2023-07-13T05:27:17;21.00;99.90
15656;DHT22;7928;43.614;1.456;2023-07-13T05:29:44;20.90;99.90
15656;DHT22;7928;43.614;1.456;2023-07-13T05:32:11;20.90;99.90
15656;DHT22;7928;43.614;1.456;2023-07-13T05:34:38;20.90;99.90
15656;DHT22;7928;43.614;1.456;2023-07-13T05:37:05;21.20;99.90
15656;DHT22;7928;43.614;1.456;2023-07-13T05:39:34;21.10;99.90
15656;DHT22;7928;43.614;1.456;2023-07-13T05:42:01;21.10;99.90
15656;DHT22;7928;43.614;1.456;2023-07-13T05:44:29;21.00;99.90
15656;DHT22;7928;43.614;1.456;2023-07-13T05:46:56;21.00;99.90
15656;DHT22;7928;43.614;1.456;2023-07-13T05:49:23;21.10;99.90
15656;DHT22;7928;43.614;1.456;2023-07-13T05:51:50;21.10;99.90
15656;DHT22;7928;43.614;1.456;2023-07-13T05:54:17;21.20;99.90
15656;DHT22;7928;43.614;1.456;2023-07-13T05:56:46;21.40;99.90
15656;DHT22;7928;43.614;1.456;2023-07-13T05:59:12;21.50;99.90
15656;DHT22;7928;43.614;1.456;2023-07-13T06:01:40;21.50;99.90
15656;DHT22;7928;43.614;1.456;2023-07-13T06:04:07;21.40;99.90
15656;DHT22;7928;43.614;1.456;2023-07-13T06:06:34;21.50;99.90
15656;DHT22;7928;43.614;1.456;2023-07-13T06:09:01;21.60;99.90
15656;DHT22;7928;43.614;1.456;2023-07-13T06:11:28;21.60;99.90
15656;DHT22;7928;43.614;1.456;2023-07-13T06:13:57;21.70;99.90
15656;DHT22;7928;43.614;1.456;2023-07-13T06:16:24;21.50;99.90
15656;DHT22;7928;43.614;1.456;2023-07-13T06:18:51;21.80;99.90
15656;DHT22;7928;43.614;1.456;2023-07-13T06:21:20;22.00;99.90
15656;DHT22;7928;43.614;1.456;2023-07-13T06:23:49;22.00;99.90
15656;DHT22;7928;43.614;1.456;2023-07-13T06:26:17;22.00;99.90
15656;DHT22;7928;43.614;1.456;2023-07-13T06:28:44;22.10;99.90
15656;DHT22;7928;43.614;1.456;2023-07-13T06:31:13;22.30;99.90
15656;DHT22;7928;43.614;1.456;2023-07-13T06:33:41;22.20;99.90
15656;DHT22;7928;43.614;1.456;2023-07-13T06:36:08;22.10;99.90
15656;DHT22;7928;43.614;1.456;2023-07-13T06:38:35;22.00;99.90
15656;DHT22;7928;43.614;1.456;2023-07-13T06:41:03;21.90;99.90
15656;DHT22;7928;43.614;1.456;2023-07-13T06:43:30;21.90;99.90
15656;DHT22;7928;43.614;1.456;2023-07-13T06:45:57;22.00;99.90
15656;DHT22;7928;43.614;1.456;2023-07-13T06:48:25;21.90;99.90
15656;DHT22;7928;43.614;1.456;2023-07-13T06:50:52;21.90;99.90
15656;DHT22;7928;43.614;1.456;2023-07-13T06:53:20;21.90;99.90
15656;DHT22;7928;43.614;1.456;2023-07-13T06:55:48;21.80;99.90
15656;DHT22;7928;43.614;1.456;2023-07-13T06:58:16;21.80;99.90
15656;DHT22;7928;43.614;1.456;2023-07-13T07:00:44;21.90;99.90
15656;DHT22;7928;43.614;1.456;2023-07-13T07:03:11;21.90;99.90
15656;DHT22;7928;43.614;1.456;2023-07-13T07:05:39;21.90;99.90
15656;DHT22;7928;43.614;1.456;2023-07-13T07:08:06;22.00;99.90
15656;DHT22;7928;43.614;1.456;2023-07-13T07:10:34;22.20;99.90
15656;DHT22;7928;43.614;1.456;2023-07-13T07:13:01;22.30;99.90
15656;DHT22;7928;43.614;1.456;2023-07-13T07:15:28;22.30;99.90
15656;DHT22;7928;43.614;1.456;2023-07-13T07:17:56;22.50;99.90
15656;DHT22;7928;43.614;1.456;2023-07-13T07:20:22;22.70;99.90
15656;DHT22;7928;43.614;1.456;2023-07-13T07:22:51;22.70;99.90
15656;DHT22;7928;43.614;1.456;2023-07-13T07:25:18;22.80;99.90
15656;DHT22;7928;43.614;1.456;2023-07-13T07:27:45;22.70;99.90
15656;DHT22;7928;43.614;1.456;2023-07-13T07:30:13;22.90;99.90
15656;DHT22;7928;43.614;1.456;2023-07-13T07:32:40;23.00;99.90
15656;DHT22;7928;43.614;1.456;2023-07-13T07:35:08;23.10;99.90
15656;DHT22;7928;43.614;1.456;2023-07-13T07:37:35;22.90;99.90
15656;DHT22;7928;43.614;1.456;2023-07-13T07:40:04;23.10;99.90
15656;DHT22;7928;43.614;1.456;2023-07-13T07:42:31;23.10;99.90
15656;DHT22;7928;43.614;1.456;2023-07-13T07:44:58;23.20;99.90
15656;DHT22;7928;43.614;1.456;2023-07-13T07:47:26;23.50;99.90
15656;DHT22;7928;43.614;1.456;2023-07-13T07:49:53;23.70;99.90
15656;DHT22;7928;43.614;1.456;2023-07-13T07:52:20;23.90;99.90
15656;DHT22;7928;43.614;1.456;2023-07-13T07:54:47;23.60;99.90
15656;DHT22;7928;43.614;1.456;2023-07-13T07:57:15;23.90;99.90
15656;DHT22;7928;43.614;1.456;2023-07-13T07:59:42;23.90;99.90
15656;DHT22;7928;43.614;1.456;2023-07-13T08:02:10;23.90;99.90
15656;DHT22;7928;43.614;1.456;2023-07-13T08:04:37;24.00;99.90
15656;DHT22;7928;43.614;1.456;2023-07-13T08:07:05;24.00;99.90
15656;DHT22;7928;43.614;1.456;2023-07-13T08:09:32;23.80;99.90
15656;DHT22;7928;43.614;1.456;2023-07-13T08:12:00;24.00;99.90
15656;DHT22;7928;43.614;1.456;2023-07-13T08:14:28;24.20;99.90
15656;DHT22;7928;43.614;1.456;2023-07-13T08:16:55;24.40;99.90
15656;DHT22;7928;43.614;1.456;2023-07-13T08:19:22;24.40;99.90
15656;DHT22;7928;43.614;1.456;2023-07-13T08:21:49;23.80;99.90
15656;DHT22;7928;43.614;1.456;2023-07-13T08:24:16;23.90;99.90
15656;DHT22;7928;43.614;1.456;2023-07-13T08:26:44;23.90;99.90
15656;DHT22;7928;43.614;1.456;2023-07-13T08:29:11;23.70;99.90
15656;DHT22;7928;43.614;1.456;2023-07-13T08:31:40;23.90;99.90
15656;DHT22;7928;43.614;1.456;2023-07-13T08:34:07;24.10;99.90
15656;DHT22;7928;43.614;1.456;2023-07-13T08:36:34;24.10;99.90
15656;DHT22;7928;43.614;1.456;2023-07-13T08:39:01;24.20;99.90
15656;DHT22;7928;43.614;1.456;2023-07-13T08:41:28;24.10;99.90
15656;DHT22;7928;43.614;1.456;2023-07-13T08:43:58;24.20;99.90
15656;DHT22;7928;43.614;1.456;2023-07-13T08:46:28;24.20;99.90
15656;DHT22;7928;43.614;1.456;2023-07-13T08:49:04;24.20;99.90
15656;DHT22;7928;43.614;1.456;2023-07-13T08:51:39;24.20;99.90
15656;DHT22;7928;43.614;1.456;2023-07-13T08:54:17;24.30;99.90
15656;DHT22;7928;43.614;1.456;2023-07-13T08:56:46;24.40;99.90
15656;DHT22;7928;43.614;1.456;2023-07-13T08:59:16;24.30;99.60
15656;DHT22;7928;43.614;1.456;2023-07-13T09:04:42;24.40;99.90
15656;DHT22;7928;43.614;1.456;2023-07-13T09:07:17;24.50;99.90
15656;DHT22;7928;43.614;1.456;2023-07-13T09:09:55;24.40;99.90
15656;DHT22;7928;43.614;1.456;2023-07-13T09:12:30;24.40;99.90
15656;DHT22;7928;43.614;1.456;2023-07-13T09:15:00;24.50;99.90
15656;DHT22;7928;43.614;1.456;2023-07-13T09:17:35;24.70;99.90
15656;DHT22;7928;43.614;1.456;2023-07-13T09:20:22;24.80;99.90
15656;DHT22;7928;43.614;1.456;2023-07-13T09:22:51;24.90;99.90
15656;DHT22;7928;43.614;1.456;2023-07-13T09:25:24;25.00;99.90
15656;DHT22;7928;43.614;1.456;2023-07-13T09:27:56;25.10;99.90
15656;DHT22;7928;43.614;1.456;2023-07-13T09:30:32;25.40;99.90
15656;DHT22;7928;43.614;1.456;2023-07-13T09:33:00;25.40;99.90
15656;DHT22;7928;43.614;1.456;2023-07-13T09:35:29;25.50;99.90
15656;DHT22;7928;43.614;1.456;2023-07-13T09:38:04;25.80;99.90
15656;DHT22;7928;43.614;1.456;2023-07-13T09:40:43;26.30;99.90
15656;DHT22;7928;43.614;1.456;2023-07-13T09:43:14;26.40;99.50
15656;DHT22;7928;43.614;1.456;2023-07-13T09:45:45;26.20;99.70
15656;DHT22;7928;43.614;1.456;2023-07-13T09:48:14;26.40;99.50
15656;DHT22;7928;43.614;1.456;2023-07-13T09:50:43;26.40;99.60
15656;DHT22;7928;43.614;1.456;2023-07-13T09:53:15;26.70;99.30
15656;DHT22;7928;43.614;1.456;2023-07-13T09:55:43;26.60;98.60
15656;DHT22;7928;43.614;1.456;2023-07-13T09:58:13;26.40;99.00
15656;DHT22;7928;43.614;1.456;2023-07-13T10:00:42;26.30;98.90
15656;DHT22;7928;43.614;1.456;2023-07-13T10:03:18;26.70;99.20
15656;DHT22;7928;43.614;1.456;2023-07-13T10:05:49;27.20;98.90
15656;DHT22;7928;43.614;1.456;2023-07-13T10:08:26;27.60;98.20
15656;DHT22;7928;43.614;1.456;2023-07-13T10:10:58;27.50;97.90
15656;DHT22;7928;43.614;1.456;2023-07-13T10:13:32;27.20;97.90
15656;DHT22;7928;43.614;1.456;2023-07-13T10:16:00;26.80;98.00
15656;DHT22;7928;43.614;1.456;2023-07-13T10:18:29;26.90;98.20
15656;DHT22;7928;43.614;1.456;2023-07-13T10:21:10;26.70;98.20
15656;DHT22;7928;43.614;1.456;2023-07-13T10:23:39;26.20;98.50
15656;DHT22;7928;43.614;1.456;2023-07-13T10:26:14;26.60;98.90
15656;DHT22;7928;43.614;1.456;2023-07-13T10:28:46;26.90;98.80
15656;DHT22;7928;43.614;1.456;2023-07-13T10:31:15;27.00;98.40
15656;DHT22;7928;43.614;1.456;2023-07-13T10:33:43;27.20;98.00
15656;DHT22;7928;43.614;1.456;2023-07-13T10:36:29;27.10;98.00
15656;DHT22;7928;43.614;1.456;2023-07-13T10:38:59;27.20;98.00
15656;DHT22;7928;43.614;1.456;2023-07-13T10:41:30;26.80;98.20
15656;DHT22;7928;43.614;1.456;2023-07-13T10:43:59;26.90;98.50
15656;DHT22;7928;43.614;1.456;2023-07-13T10:46:28;27.60;98.00
15656;DHT22;7928;43.614;1.456;2023-07-13T10:48:58;28.00;97.10
15656;DHT22;7928;43.614;1.456;2023-07-13T10:51:28;28.00;97.20
15656;DHT22;7928;43.614;1.456;2023-07-13T10:54:15;28.00;97.50
15656;DHT22;7928;43.614;1.456;2023-07-13T10:56:43;28.20;97.20
15656;DHT22;7928;43.614;1.456;2023-07-13T10:59:14;28.30;97.00
15656;DHT22;7928;43.614;1.456;2023-07-13T11:01:51;28.10;97.30
15656;DHT22;7928;43.614;1.456;2023-07-13T11:04:20;28.40;97.10
15656;DHT22;7928;43.614;1.456;2023-07-13T11:06:52;28.90;96.40
15656;DHT22;7928;43.614;1.456;2023-07-13T11:09:38;28.90;96.10
15656;DHT22;7928;43.614;1.456;2023-07-13T11:12:25;28.20;96.00
15656;DHT22;7928;43.614;1.456;2023-07-13T11:15:05;27.70;96.50
15656;DHT22;7928;43.614;1.456;2023-07-13T11:17:47;28.70;96.10
15656;DHT22;7928;43.614;1.456;2023-07-13T11:20:36;29.50;96.10
15656;DHT22;7928;43.614;1.456;2023-07-13T11:26:02;30.10;94.90
15656;DHT22;7928;43.614;1.456;2023-07-13T11:28:31;29.80;95.50
15656;DHT22;7928;43.614;1.456;2023-07-13T11:31:16;29.50;95.20
15656;DHT22;7928;43.614;1.456;2023-07-13T11:33:57;29.60;95.10
15656;DHT22;7928;43.614;1.456;2023-07-13T11:36:30;30.20;94.20
15656;DHT22;7928;43.614;1.456;2023-07-13T11:39:02;30.00;94.20
15656;DHT22;7928;43.614;1.456;2023-07-13T11:41:33;30.40;94.00
15656;DHT22;7928;43.614;1.456;2023-07-13T11:44:06;31.70;93.30
15656;DHT22;7928;43.614;1.456;2023-07-13T11:46:33;32.40;92.00
15656;DHT22;7928;43.614;1.456;2023-07-13T11:49:00;32.00;92.00
15656;DHT22;7928;43.614;1.456;2023-07-13T11:51:30;31.10;91.90
15656;DHT22;7928;43.614;1.456;2023-07-13T11:54:03;30.40;92.70
15656;DHT22;7928;43.614;1.456;2023-07-13T11:56:30;30.30;93.10
15656;DHT22;7928;43.614;1.456;2023-07-13T11:59:04;30.40;93.30
15656;DHT22;7928;43.614;1.456;2023-07-13T12:01:32;31.10;93.40
15656;DHT22;7928;43.614;1.456;2023-07-13T12:04:01;30.70;92.40
15656;DHT22;7928;43.614;1.456;2023-07-13T12:06:30;30.80;92.20
15656;DHT22;7928;43.614;1.456;2023-07-13T12:09:00;30.40;92.50
15656;DHT22;7928;43.614;1.456;2023-07-13T12:11:29;30.20;92.50
15656;DHT22;7928;43.614;1.456;2023-07-13T12:13:56;30.20;92.90
15656;DHT22;7928;43.614;1.456;2023-07-13T12:16:28;30.10;93.20
15656;DHT22;7928;43.614;1.456;2023-07-13T12:18:56;30.30;93.00
15656;DHT22;7928;43.614;1.456;2023-07-13T12:21:30;29.70;93.20
15656;DHT22;7928;43.614;1.456;2023-07-13T12:23:57;30.00;93.50
15656;DHT22;7928;43.614;1.456;2023-07-13T12:26:26;29.80;93.60
15656;DHT22;7928;43.614;1.456;2023-07-13T12:28:54;29.70;93.20
15656;DHT22;7928;43.614;1.456;2023-07-13T12:31:34;29.80;93.30
15656;DHT22;7928;43.614;1.456;2023-07-13T12:34:06;29.80;93.30
15656;DHT22;7928;43.614;1.456;2023-07-13T12:36:35;30.00;93.30
15656;DHT22;7928;43.614;1.456;2023-07-13T12:39:12;31.40;92.40
15656;DHT22;7928;43.614;1.456;2023-07-13T12:41:41;31.50;91.90
15656;DHT22;7928;43.614;1.456;2023-07-13T12:44:14;31.30;92.50
15656;DHT22;7928;43.614;1.456;2023-07-13T12:46:53;30.50;92.10
15656;DHT22;7928;43.614;1.456;2023-07-13T12:49:24;31.00;92.60
15656;DHT22;7928;43.614;1.456;2023-07-13T12:51:56;30.90;92.20
15656;DHT22;7928;43.614;1.456;2023-07-13T12:54:25;31.60;91.90
15656;DHT22;7928;43.614;1.456;2023-07-13T12:56:55;31.20;92.30
15656;DHT22;7928;43.614;1.456;2023-07-13T12:59:24;31.40;91.90
15656;DHT22;7928;43.614;1.456;2023-07-13T13:01:53;31.30;92.00
15656;DHT22;7928;43.614;1.456;2023-07-13T13:04:21;30.60;92.10
15656;DHT22;7928;43.614;1.456;2023-07-13T13:06:49;30.40;91.90
15656;DHT22;7928;43.614;1.456;2023-07-13T13:09:17;29.90;92.50
15656;DHT22;7928;43.614;1.456;2023-07-13T13:11:45;29.90;92.70
15656;DHT22;7928;43.614;1.456;2023-07-13T13:14:14;30.60;92.10
15656;DHT22;7928;43.614;1.456;2023-07-13T13:16:46;30.00;92.40
15656;DHT22;7928;43.614;1.456;2023-07-13T13:19:17;29.90;92.20
15656;DHT22;7928;43.614;1.456;2023-07-13T13:21:45;31.10;91.90
15656;DHT22;7928;43.614;1.456;2023-07-13T13:24:14;32.70;90.60
15656;DHT22;7928;43.614;1.456;2023-07-13T13:26:42;33.10;88.90
15656;DHT22;7928;43.614;1.456;2023-07-13T13:29:14;32.70;89.70
15656;DHT22;7928;43.614;1.456;2023-07-13T13:31:41;31.70;90.40
15656;DHT22;7928;43.614;1.456;2023-07-13T13:34:11;31.40;91.10
15656;DHT22;7928;43.614;1.456;2023-07-13T13:36:40;32.70;90.40
15656;DHT22;7928;43.614;1.456;2023-07-13T13:39:19;33.70;87.80
15656;DHT22;7928;43.614;1.456;2023-07-13T13:41:48;33.30;86.90
15656;DHT22;7928;43.614;1.456;2023-07-13T13:44:18;33.50;87.40
15656;DHT22;7928;43.614;1.456;2023-07-13T13:46:47;34.00;86.90
15656;DHT22;7928;43.614;1.456;2023-07-13T13:49:17;33.90;87.00
15656;DHT22;7928;43.614;1.456;2023-07-13T13:51:45;34.80;85.10
15656;DHT22;7928;43.614;1.456;2023-07-13T13:54:13;33.90;84.10
15656;DHT22;7928;43.614;1.456;2023-07-13T13:56:42;34.00;85.40
15656;DHT22;7928;43.614;1.456;2023-07-13T13:59:09;34.20;85.30
15656;DHT22;7928;43.614;1.456;2023-07-13T14:01:38;33.80;84.50
15656;DHT22;7928;43.614;1.456;2023-07-13T14:04:06;32.00;86.60
15656;DHT22;7928;43.614;1.456;2023-07-13T14:06:34;32.50;87.70
15656;DHT22;7928;43.614;1.456;2023-07-13T14:09:02;32.30;87.70
15656;DHT22;7928;43.614;1.456;2023-07-13T14:11:30;32.10;88.60
15656;DHT22;7928;43.614;1.456;2023-07-13T14:13:59;32.10;88.10
15656;DHT22;7928;43.614;1.456;2023-07-13T14:16:28;33.20;87.70
15656;DHT22;7928;43.614;1.456;2023-07-13T14:18:59;33.20;87.20
15656;DHT22;7928;43.614;1.456;2023-07-13T14:21:28;32.60;86.90
15656;DHT22;7928;43.614;1.456;2023-07-13T14:23:56;33.40;87.50
15656;DHT22;7928;43.614;1.456;2023-07-13T14:26:25;32.90;85.60
15656;DHT22;7928;43.614;1.456;2023-07-13T14:28:54;32.60;86.70
15656;DHT22;7928;43.614;1.456;2023-07-13T14:31:24;33.00;87.10
15656;DHT22;7928;43.614;1.456;2023-07-13T14:33:51;33.30;86.10
15656;DHT22;7928;43.614;1.456;2023-07-13T14:36:26;34.20;83.50
15656;DHT22;7928;43.614;1.456;2023-07-13T14:38:53;34.90;83.50
15656;DHT22;7928;43.614;1.456;2023-07-13T14:41:20;35.40;82.80
15656;DHT22;7928;43.614;1.456;2023-07-13T14:43:48;35.30;82.40
15656;DHT22;7928;43.614;1.456;2023-07-13T14:46:26;34.00;82.40
15656;DHT22;7928;43.614;1.456;2023-07-13T14:49:00;33.30;83.10
15656;DHT22;7928;43.614;1.456;2023-07-13T14:51:30;32.90;84.30
15656;DHT22;7928;43.614;1.456;2023-07-13T14:54:02;33.10;84.90
15656;DHT22;7928;43.614;1.456;2023-07-13T14:56:29;33.70;84.50
15656;DHT22;7928;43.614;1.456;2023-07-13T14:58:56;34.60;82.10
15656;DHT22;7928;43.614;1.456;2023-07-13T15:01:23;34.80;82.30
15656;DHT22;7928;43.614;1.456;2023-07-13T15:03:51;34.70;80.30
15656;DHT22;7928;43.614;1.456;2023-07-13T15:06:19;33.00;81.80
15656;DHT22;7928;43.614;1.456;2023-07-13T15:08:48;31.50;84.10
15656;DHT22;7928;43.614;1.456;2023-07-13T15:11:15;30.90;85.40
15656;DHT22;7928;43.614;1.456;2023-07-13T15:13:43;31.90;86.70
15656;DHT22;7928;43.614;1.456;2023-07-13T15:16:18;32.60;83.80
15656;DHT22;7928;43.614;1.456;2023-07-13T15:18:46;33.00;84.70
15656;DHT22;7928;43.614;1.456;2023-07-13T15:21:17;34.00;81.50
15656;DHT22;7928;43.614;1.456;2023-07-13T15:23:47;34.40;80.70
15656;DHT22;7928;43.614;1.456;2023-07-13T15:26:15;33.80;79.30
15656;DHT22;7928;43.614;1.456;2023-07-13T15:28:43;33.80;79.30
15656;DHT22;7928;43.614;1.456;2023-07-13T15:31:22;33.40;80.90
15656;DHT22;7928;43.614;1.456;2023-07-13T15:33:50;33.80;80.10
15656;DHT22;7928;43.614;1.456;2023-07-13T15:36:18;34.60;80.70
15656;DHT22;7928;43.614;1.456;2023-07-13T15:38:47;35.10;79.60
15656;DHT22;7928;43.614;1.456;2023-07-13T15:41:20;35.30;79.20
15656;DHT22;7928;43.614;1.456;2023-07-13T15:43:48;35.10;78.70
15656;DHT22;7928;43.614;1.456;2023-07-13T15:46:16;34.10;79.20
15656;DHT22;7928;43.614;1.456;2023-07-13T15:48:45;34.00;78.70
15656;DHT22;7928;43.614;1.456;2023-07-13T15:51:18;33.40;79.50
15656;DHT22;7928;43.614;1.456;2023-07-13T15:53:48;33.40;79.10
15656;DHT22;7928;43.614;1.456;2023-07-13T15:56:19;33.70;78.50
15656;DHT22;7928;43.614;1.456;2023-07-13T15:58:48;33.90;78.20
15656;DHT22;7928;43.614;1.456;2023-07-13T16:01:16;33.60;77.50
15656;DHT22;7928;43.614;1.456;2023-07-13T16:03:43;33.50;78.10